sensor_id;sensor_type;location;lat;lon;timestamp;P1;durP1;ratioP1;P2;durP2;ratioP2
9324;SDS011;4701;51.566;6.776;2023-04-01T07:03:44;6.07;;;5.47;;
9324;SDS011;4701;51.566;6.776;2023-04-01T07:06:53;5.33;;;4.83;;
9324;SDS011;4701;51.566;6.776;2023-04-01T07:09:57;5.40;;;4.90;;
9324;SDS011;4701;51.566;6.776;2023-04-01T07:13:04;5.90;;;5.30;;
9324;SDS011;4701;51.566;6.776;2023-04-01T07:16:29;6.53;;;5.63;;
9324;SDS011;4701;51.566;6.776;2023-04-01T07:19:34;5.53;;;5.03;;
9324;SDS011;4701;51.566;6.776;2023-04-01T07:22:43;6.07;;;5.47;;
9324;SDS011;4701;51.566;6.776;2023-04-01T07:26:04;5.40;;;4.90;;
9324;SDS011;4701;51.566;6.776;2023-04-01T07:29:17;6.60;;;6.00;;
9324;SDS011;4701;51.566;6.776;2023-04-01T07:32:27;8.20;;;6.67;;
9324;SDS011;4701;51.566;6.776;2023-04-01T07:35:43;6.00;;;5.47;;
9324;SDS011;4701;51.566;6.776;2023-04-01T07:38:56;5.57;;;5.07;;
9324;SDS011;4701;51.566;6.776;2023-04-01T07:42:31;6.03;;;5.37;;
9324;SDS011;4701;51.566;6.776;2023-04-01T07:45:44;5.93;;;5.43;;
9324;SDS011;4701;51.566;6.776;2023-04-01T07:48:53;6.20;;;5.60;;
9324;SDS011;4701;51.566;6.776;2023-04-01T07:52:04;7.63;;;6.83;;
9324;SDS011;4701;51.566;6.776;2023-04-01T07:55:16;6.03;;;5.43;;
9324;SDS011;4701;51.566;6.776;2023-04-01T07:58:25;6.00;;;5.13;;
9324;SDS011;4701;51.566;6.776;2023-04-01T08:01:39;6.50;;;5.80;;
9324;SDS011;4701;51.566;6.776;2023-04-01T08:04:50;7.30;;;5.57;;
9324;SDS011;4701;51.566;6.776;2023-04-01T08:08:02;6.63;;;5.73;;
9324;SDS011;4701;51.566;6.776;2023-04-01T08:11:40;8.03;;;6.60;;
9324;SDS011;4701;51.566;6.776;2023-04-01T08:15:10;6.83;;;5.90;;
9324;SDS011;4701;51.566;6.776;2023-04-01T08:18:27;7.83;;;6.63;;
9324;SDS011;4701;51.566;6.776;2023-04-01T08:21:38;9.33;;;6.50;;
9324;SDS011;4701;51.566;6.776;2023-04-01T08:24:46;7.83;;;6.57;;
9324;SDS011;4701;51.566;6.776;2023-04-01T08:27:57;6.97;;;6.17;;
9324;SDS011;4701;51.566;6.776;2023-04-01T08:31:06;6.83;;;6.10;;
9324;SDS011;4701;51.566;6.776;2023-04-01T08:34:17;7.73;;;6.63;;
9324;SDS011;4701;51.566;6.776;2023-04-01T08:37:24;8.50;;;6.70;;
9324;SDS011;4701;51.566;6.776;2023-04-01T08:47:54;7.53;;;6.67;;
9324;SDS011;4701;51.566;6.776;2023-04-01T08:51:23;8.17;;;7.30;;
9324;SDS011;4701;51.566;6.776;2023-04-01T08:54:48;8.57;;;7.30;;
9324;SDS011;4701;51.566;6.776;2023-04-01T08:58:30;9.07;;;7.00;;
9324;SDS011;4701;51.566;6.776;2023-04-01T09:02:14;10.20;;;7.20;;
9324;SDS011;4701;51.566;6.776;2023-04-01T09:05:52;9.40;;;7.40;;
9324;SDS011;4701;51.566;6.776;2023-04-01T09:09:21;8.67;;;7.13;;
9324;SDS011;4701;51.566;6.776;2023-04-01T09:12:49;10.57;;;7.30;;
9324;SDS011;4701;51.566;6.776;2023-04-01T09:16:05;10.00;;;7.80;;
9324;SDS011;4701;51.566;6.776;2023-04-01T09:19:24;8.17;;;7.00;;
9324;SDS011;4701;51.566;6.776;2023-04-01T09:22:39;10.13;;;7.70;;
9324;SDS011;4701;51.566;6.776;2023-04-01T09:25:53;9.20;;;7.50;;
9324;SDS011;4701;51.566;6.776;2023-04-01T09:29:11;9.30;;;7.53;;
9324;SDS011;4701;51.566;6.776;2023-04-01T09:32:33;10.77;;;8.07;;
9324;SDS011;4701;51.566;6.776;2023-04-01T09:35:56;9.47;;;7.70;;
9324;SDS011;4701;51.566;6.776;2023-04-01T09:39:11;9.97;;;7.90;;
9324;SDS011;4701;51.566;6.776;2023-04-01T09:42:34;9.37;;;7.87;;
9324;SDS011;4701;51.566;6.776;2023-04-01T09:45:56;10.53;;;7.90;;
9324;SDS011;4701;51.566;6.776;2023-04-01T09:49:17;10.73;;;8.27;;
9324;SDS011;4701;51.566;6.776;2023-04-01T09:52:32;9.73;;;8.57;;
9324;SDS011;4701;51.566;6.776;2023-04-01T09:56:03;10.60;;;8.23;;
9324;SDS011;4701;51.566;6.776;2023-04-01T09:59:31;10.07;;;8.23;;
9324;SDS011;4701;51.566;6.776;2023-04-01T10:10:48;7.20;;;5.53;;
9324;SDS011;4701;51.566;6.776;2023-04-01T10:17:54;7.60;;;5.70;;
9324;SDS011;4701;51.566;6.776;2023-04-01T10:21:23;9.47;;;6.57;;
9324;SDS011;4701;51.566;6.776;2023-04-01T10:24:51;7.70;;;6.60;;
9324;SDS011;4701;51.566;6.776;2023-04-01T10:28:24;7.80;;;6.47;;
9324;SDS011;4701;51.566;6.776;2023-04-01T10:47:29;8.23;;;6.47;;
9324;SDS011;4701;51.566;6.776;2023-04-01T10:50:53;6.43;;;5.77;;
9324;SDS011;4701;51.566;6.776;2023-04-01T10:54:17;9.13;;;6.53;;
9324;SDS011;4701;51.566;6.776;2023-04-01T10:57:59;7.47;;;6.37;;
9324;SDS011;4701;51.566;6.776;2023-04-01T11:06:39;7.23;;;6.30;;
9324;SDS011;4701;51.566;6.776;2023-04-01T11:10:30;7.47;;;6.47;;
9324;SDS011;4701;51.566;6.776;2023-04-01T11:14:08;8.73;;;6.50;;
9324;SDS011;4701;51.566;6.776;2023-04-01T11:25:20;9.43;;;8.37;;
9324;SDS011;4701;51.566;6.776;2023-04-01T11:29:21;9.97;;;7.33;;
9324;SDS011;4701;51.566;6.776;2023-04-01T11:32:52;9.27;;;7.27;;
9324;SDS011;4701;51.566;6.776;2023-04-01T11:36:09;10.23;;;7.53;;
9324;SDS011;4701;51.566;6.776;2023-04-01T11:39:23;11.43;;;8.47;;
9324;SDS011;4701;51.566;6.776;2023-04-01T11:42:39;9.63;;;8.50;;
9324;SDS011;4701;51.566;6.776;2023-04-01T11:46:23;8.90;;;7.50;;
9324;SDS011;4701;51.566;6.776;2023-04-01T11:56:43;11.17;;;8.37;;
9324;SDS011;4701;51.566;6.776;2023-04-01T12:00:10;10.27;;;8.37;;
9324;SDS011;4701;51.566;6.776;2023-04-01T12:03:32;12.37;;;8.73;;
9324;SDS011;4701;51.566;6.776;2023-04-01T12:06:46;11.83;;;8.60;;
9324;SDS011;4701;51.566;6.776;2023-04-01T12:09:56;10.63;;;8.73;;
9324;SDS011;4701;51.566;6.776;2023-04-01T12:13:04;12.07;;;8.87;;
9324;SDS011;4701;51.566;6.776;2023-04-01T12:19:46;10.03;;;8.10;;
9324;SDS011;4701;51.566;6.776;2023-04-01T12:22:54;10.90;;;8.90;;
9324;SDS011;4701;51.566;6.776;2023-04-01T12:26:18;11.00;;;8.67;;
9324;SDS011;4701;51.566;6.776;2023-04-01T12:29:47;9.50;;;7.23;;
9324;SDS011;4701;51.566;6.776;2023-04-01T12:33:05;12.67;;;8.07;;
9324;SDS011;4701;51.566;6.776;2023-04-01T12:36:25;12.03;;;8.73;;
9324;SDS011;4701;51.566;6.776;2023-04-01T12:39:37;13.03;;;9.37;;
9324;SDS011;4701;51.566;6.776;2023-04-01T12:43:23;17.10;;;9.83;;
9324;SDS011;4701;51.566;6.776;2023-04-01T12:46:42;11.33;;;7.97;;
9324;SDS011;4701;51.566;6.776;2023-04-01T12:50:12;14.83;;;8.50;;
9324;SDS011;4701;51.566;6.776;2023-04-01T12:53:36;11.43;;;8.83;;
9324;SDS011;4701;51.566;6.776;2023-04-01T12:56:55;13.20;;;8.87;;
9324;SDS011;4701;51.566;6.776;2023-04-01T13:00:11;10.70;;;8.67;;
9324;SDS011;4701;51.566;6.776;2023-04-01T13:03:37;12.07;;;9.30;;
9324;SDS011;4701;51.566;6.776;2023-04-01T13:06:53;11.83;;;8.83;;
9324;SDS011;4701;51.566;6.776;2023-04-01T13:10:15;13.33;;;9.87;;
9324;SDS011;4701;51.566;6.776;2023-04-01T13:17:17;15.17;;;9.37;;
9324;SDS011;4701;51.566;6.776;2023-04-01T13:20:27;12.73;;;8.60;;
9324;SDS011;4701;51.566;6.776;2023-04-01T13:23:45;17.40;;;9.73;;
9324;SDS011;4701;51.566;6.776;2023-04-01T13:26:59;17.70;;;10.70;;
9324;SDS011;4701;51.566;6.776;2023-04-01T13:30:18;14.53;;;9.63;;
9324;SDS011;4701;51.566;6.776;2023-04-01T13:33:27;11.23;;;8.40;;
9324;SDS011;4701;51.566;6.776;2023-04-01T13:36:39;9.63;;;7.30;;
9324;SDS011;4701;51.566;6.776;2023-04-01T13:39:58;11.07;;;8.50;;
9324;SDS011;4701;51.566;6.776;2023-04-01T13:43:16;11.33;;;8.90;;
9324;SDS011;4701;51.566;6.776;2023-04-01T13:46:34;11.17;;;8.23;;
9324;SDS011;4701;51.566;6.776;2023-04-01T13:53:37;12.77;;;8.53;;
9324;SDS011;4701;51.566;6.776;2023-04-01T13:57:02;13.47;;;9.07;;
9324;SDS011;4701;51.566;6.776;2023-04-01T14:00:22;12.47;;;9.93;;
9324;SDS011;4701;51.566;6.776;2023-04-01T14:03:30;11.93;;;9.77;;
9324;SDS011;4701;51.566;6.776;2023-04-01T14:06:54;15.93;;;10.80;;
9324;SDS011;4701;51.566;6.776;2023-04-01T14:10:05;14.00;;;11.20;;
9324;SDS011;4701;51.566;6.776;2023-04-01T14:13:14;10.43;;;8.93;;
9324;SDS011;4701;51.566;6.776;2023-04-01T14:16:27;11.03;;;9.90;;
9324;SDS011;4701;51.566;6.776;2023-04-01T14:20:16;11.53;;;10.27;;
9324;SDS011;4701;51.566;6.776;2023-04-01T14:23:29;10.67;;;9.57;;
9324;SDS011;4701;51.566;6.776;2023-04-01T14:26:47;10.80;;;9.33;;
9324;SDS011;4701;51.566;6.776;2023-04-01T14:30:01;12.03;;;9.77;;
9324;SDS011;4701;51.566;6.776;2023-04-01T14:33:23;13.40;;;11.30;;
9324;SDS011;4701;51.566;6.776;2023-04-01T14:36:41;12.63;;;10.93;;
9324;SDS011;4701;51.566;6.776;2023-04-01T14:39:59;15.30;;;12.73;;
9324;SDS011;4701;51.566;6.776;2023-04-01T14:43:20;15.03;;;12.27;;
9324;SDS011;4701;51.566;6.776;2023-04-01T14:46:33;14.13;;;11.93;;
9324;SDS011;4701;51.566;6.776;2023-04-01T14:49:50;14.17;;;12.67;;
9324;SDS011;4701;51.566;6.776;2023-04-01T14:52:59;12.53;;;11.07;;
9324;SDS011;4701;51.566;6.776;2023-04-01T14:56:14;15.10;;;13.50;;
9324;SDS011;4701;51.566;6.776;2023-04-01T14:59:39;14.07;;;12.40;;
9324;SDS011;4701;51.566;6.776;2023-04-01T15:02:50;15.03;;;12.33;;
9324;SDS011;4701;51.566;6.776;2023-04-01T15:06:11;14.50;;;12.03;;
9324;SDS011;4701;51.566;6.776;2023-04-01T15:09:32;15.13;;;11.67;;
9324;SDS011;4701;51.566;6.776;2023-04-01T15:12:42;14.83;;;12.30;;
9324;SDS011;4701;51.566;6.776;2023-04-01T15:15:59;14.07;;;11.47;;
9324;SDS011;4701;51.566;6.776;2023-04-01T15:19:14;15.00;;;11.53;;
9324;SDS011;4701;51.566;6.776;2023-04-01T15:22:32;12.90;;;10.77;;
9324;SDS011;4701;51.566;6.776;2023-04-01T15:25:48;14.90;;;10.93;;
9324;SDS011;4701;51.566;6.776;2023-04-01T15:32:40;13.07;;;9.43;;
9324;SDS011;4701;51.566;6.776;2023-04-01T15:35:51;11.23;;;9.67;;
9324;SDS011;4701;51.566;6.776;2023-04-01T15:39:04;13.77;;;9.73;;
9324;SDS011;4701;51.566;6.776;2023-04-01T15:42:22;13.80;;;10.83;;
9324;SDS011;4701;51.566;6.776;2023-04-01T15:45:38;9.93;;;8.50;;
9324;SDS011;4701;51.566;6.776;2023-04-01T15:48:51;14.20;;;9.83;;
9324;SDS011;4701;51.566;6.776;2023-04-01T15:52:05;11.23;;;8.60;;
9324;SDS011;4701;51.566;6.776;2023-04-01T15:55:14;9.47;;;8.00;;
9324;SDS011;4701;51.566;6.776;2023-04-01T15:58:28;11.20;;;8.70;;
9324;SDS011;4701;51.566;6.776;2023-04-01T16:01:44;14.93;;;9.63;;
9324;SDS011;4701;51.566;6.776;2023-04-01T16:04:54;14.17;;;10.20;;
9324;SDS011;4701;51.566;6.776;2023-04-01T16:08:08;15.40;;;10.77;;
9324;SDS011;4701;51.566;6.776;2023-04-01T16:11:19;15.40;;;10.30;;
9324;SDS011;4701;51.566;6.776;2023-04-01T16:14:33;12.20;;;9.07;;
9324;SDS011;4701;51.566;6.776;2023-04-01T16:17:50;13.23;;;9.10;;
9324;SDS011;4701;51.566;6.776;2023-04-01T16:21:07;16.33;;;10.73;;
9324;SDS011;4701;51.566;6.776;2023-04-01T16:24:15;12.77;;;9.57;;
9324;SDS011;4701;51.566;6.776;2023-04-01T16:27:24;17.40;;;10.73;;
9324;SDS011;4701;51.566;6.776;2023-04-01T16:30:36;12.63;;;8.90;;
9324;SDS011;4701;51.566;6.776;2023-04-01T16:33:40;13.43;;;9.97;;
9324;SDS011;4701;51.566;6.776;2023-04-01T16:36:50;12.50;;;8.43;;
9324;SDS011;4701;51.566;6.776;2023-04-01T16:40:01;10.90;;;8.40;;
9324;SDS011;4701;51.566;6.776;2023-04-01T16:43:16;13.00;;;9.20;;
9324;SDS011;4701;51.566;6.776;2023-04-01T16:46:31;13.27;;;8.93;;
9324;SDS011;4701;51.566;6.776;2023-04-01T16:49:36;10.20;;;7.93;;
9324;SDS011;4701;51.566;6.776;2023-04-01T16:52:43;9.80;;;8.40;;
9324;SDS011;4701;51.566;6.776;2023-04-01T16:56:04;13.20;;;9.20;;
9324;SDS011;4701;51.566;6.776;2023-04-01T16:59:14;12.57;;;9.40;;
9324;SDS011;4701;51.566;6.776;2023-04-01T17:02:23;9.40;;;8.17;;
9324;SDS011;4701;51.566;6.776;2023-04-01T17:05:39;11.77;;;10.03;;
9324;SDS011;4701;51.566;6.776;2023-04-01T17:08:53;11.83;;;9.83;;
9324;SDS011;4701;51.566;6.776;2023-04-01T17:12:05;9.83;;;8.60;;
9324;SDS011;4701;51.566;6.776;2023-04-01T17:15:17;11.87;;;9.10;;
9324;SDS011;4701;51.566;6.776;2023-04-01T17:18:30;13.57;;;9.00;;
9324;SDS011;4701;51.566;6.776;2023-04-01T17:21:44;12.57;;;9.30;;
9324;SDS011;4701;51.566;6.776;2023-04-01T17:24:54;12.07;;;9.03;;
9324;SDS011;4701;51.566;6.776;2023-04-01T17:28:10;15.93;;;11.40;;
9324;SDS011;4701;51.566;6.776;2023-04-01T17:31:22;17.47;;;13.30;;
9324;SDS011;4701;51.566;6.776;2023-04-01T17:34:38;17.37;;;13.13;;
9324;SDS011;4701;51.566;6.776;2023-04-01T17:37:56;17.80;;;12.83;;
9324;SDS011;4701;51.566;6.776;2023-04-01T17:41:08;11.63;;;9.30;;
9324;SDS011;4701;51.566;6.776;2023-04-01T17:44:16;7.87;;;7.07;;
9324;SDS011;4701;51.566;6.776;2023-04-01T17:47:40;6.67;;;5.97;;
9324;SDS011;4701;51.566;6.776;2023-04-01T17:50:59;8.23;;;6.33;;
9324;SDS011;4701;51.566;6.776;2023-04-01T17:54:21;7.57;;;6.70;;
9324;SDS011;4701;51.566;6.776;2023-04-01T17:57:30;14.80;;;13.17;;
9324;SDS011;4701;51.566;6.776;2023-04-01T18:00:47;9.00;;;7.90;;
9324;SDS011;4701;51.566;6.776;2023-04-01T18:04:10;7.63;;;6.80;;
9324;SDS011;4701;51.566;6.776;2023-04-01T18:07:25;6.33;;;5.70;;
9324;SDS011;4701;51.566;6.776;2023-04-01T18:10:41;5.23;;;4.73;;
9324;SDS011;4701;51.566;6.776;2023-04-01T18:14:15;5.50;;;4.13;;
9324;SDS011;4701;51.566;6.776;2023-04-01T18:17:27;4.40;;;3.87;;
9324;SDS011;4701;51.566;6.776;2023-04-01T18:20:43;3.77;;;3.47;;
9324;SDS011;4701;51.566;6.776;2023-04-01T18:23:55;9.60;;;8.57;;
9324;SDS011;4701;51.566;6.776;2023-04-01T18:27:01;8.90;;;7.23;;
9324;SDS011;4701;51.566;6.776;2023-04-01T18:30:07;6.90;;;5.50;;
9324;SDS011;4701;51.566;6.776;2023-04-01T18:33:16;5.97;;;5.27;;
9324;SDS011;4701;51.566;6.776;2023-04-01T18:36:24;6.47;;;5.43;;
9324;SDS011;4701;51.566;6.776;2023-04-01T18:39:37;7.07;;;6.37;;
9324;SDS011;4701;51.566;6.776;2023-04-01T18:42:44;6.80;;;5.80;;
9324;SDS011;4701;51.566;6.776;2023-04-01T18:45:57;5.17;;;4.63;;
9324;SDS011;4701;51.566;6.776;2023-04-01T18:49:05;4.73;;;4.13;;
9324;SDS011;4701;51.566;6.776;2023-04-01T18:52:11;5.10;;;4.63;;
9324;SDS011;4701;51.566;6.776;2023-04-01T18:55:24;5.03;;;4.53;;
9324;SDS011;4701;51.566;6.776;2023-04-01T18:58:33;4.47;;;4.07;;
9324;SDS011;4701;51.566;6.776;2023-04-01T19:01:37;4.30;;;3.97;;
9324;SDS011;4701;51.566;6.776;2023-04-01T19:04:45;4.43;;;3.80;;
9324;SDS011;4701;51.566;6.776;2023-04-01T19:07:53;3.37;;;3.17;;
9324;SDS011;4701;51.566;6.776;2023-04-01T19:11:00;3.03;;;2.83;;
9324;SDS011;4701;51.566;6.776;2023-04-01T19:14:11;3.40;;;3.20;;
9324;SDS011;4701;51.566;6.776;2023-04-01T19:17:19;4.13;;;3.83;;
9324;SDS011;4701;51.566;6.776;2023-04-01T19:20:33;3.07;;;2.87;;
9324;SDS011;4701;51.566;6.776;2023-04-01T19:23:53;3.27;;;2.93;;
9324;SDS011;4701;51.566;6.776;2023-04-01T19:27:10;2.57;;;2.37;;
9324;SDS011;4701;51.566;6.776;2023-04-01T19:30:27;2.57;;;2.37;;
9324;SDS011;4701;51.566;6.776;2023-04-01T19:33:44;2.53;;;2.33;;
9324;SDS011;4701;51.566;6.776;2023-04-01T19:37:01;3.20;;;2.90;;
9324;SDS011;4701;51.566;6.776;2023-04-01T19:40:13;2.50;;;2.30;;
9324;SDS011;4701;51.566;6.776;2023-04-01T19:43:38;2.10;;;2.00;;
9324;SDS011;4701;51.566;6.776;2023-04-01T19:46:48;2.13;;;2.03;;
9324;SDS011;4701;51.566;6.776;2023-04-01T19:49:55;3.17;;;2.60;;
9324;SDS011;4701;51.566;6.776;2023-04-01T19:53:07;2.83;;;2.63;;
9324;SDS011;4701;51.566;6.776;2023-04-01T19:56:20;3.53;;;3.23;;
9324;SDS011;4701;51.566;6.776;2023-04-01T19:59:27;2.90;;;2.70;;
9324;SDS011;4701;51.566;6.776;2023-04-01T20:02:37;3.50;;;3.20;;
9324;SDS011;4701;51.566;6.776;2023-04-01T20:05:56;3.33;;;3.10;;
9324;SDS011;4701;51.566;6.776;2023-04-01T20:09:13;3.37;;;2.97;;
9324;SDS011;4701;51.566;6.776;2023-04-01T20:12:37;3.27;;;2.97;;
9324;SDS011;4701;51.566;6.776;2023-04-01T20:15:57;3.00;;;2.80;;
9324;SDS011;4701;51.566;6.776;2023-04-01T20:19:02;3.67;;;3.27;;
9324;SDS011;4701;51.566;6.776;2023-04-01T20:22:05;3.50;;;3.20;;
9324;SDS011;4701;51.566;6.776;2023-04-01T20:25:22;3.80;;;3.50;;
9324;SDS011;4701;51.566;6.776;2023-04-01T20:28:28;3.47;;;3.20;;
9324;SDS011;4701;51.566;6.776;2023-04-01T20:31:41;2.70;;;2.50;;
9324;SDS011;4701;51.566;6.776;2023-04-01T20:34:50;3.20;;;2.97;;
9324;SDS011;4701;51.566;6.776;2023-04-01T20:38:16;3.20;;;3.00;;
9324;SDS011;4701;51.566;6.776;2023-04-01T20:41:33;3.60;;;3.23;;
9324;SDS011;4701;51.566;6.776;2023-04-01T20:44:45;2.60;;;2.40;;
9324;SDS011;4701;51.566;6.776;2023-04-01T20:47:59;2.90;;;2.70;;
9324;SDS011;4701;51.566;6.776;2023-04-01T20:51:15;3.37;;;3.13;;
9324;SDS011;4701;51.566;6.776;2023-04-01T20:54:32;3.27;;;2.93;;
9324;SDS011;4701;51.566;6.776;2023-04-01T20:57:45;2.90;;;2.70;;
